Time;durP1;ratioP1;P1;durP2;ratioP2;P2;SDS_P1;SDS_P2;PMS_P1;PMS_P2;Temp;Humidity;BMP_temperature;BMP_pressure;BME280_temperature;BME280_humidity;BME280_pressure;Samples;Min_cycle;Max_cycle;Signal;HPM_P1;HPM_P2
2021/07/29 00:01:15;;;;;;;16.70;15.80;;;17.40;99.90;;;;;;5033684;28;20444;-71
2021/07/29 00:03:42;;;;;;;16.83;15.80;;;17.40;99.90;;;;;;5033454;28;20455;-71
2021/07/29 00:06:14;;;;;;;15.70;14.80;;;17.40;99.90;;;;;;5033398;28;20449;-72
2021/07/29 00:08:40;;;;;;;16.10;15.30;;;17.30;99.90;;;;;;5033627;28;20583;-70
2021/07/29 00:11:07;;;;;;;16.20;15.20;;;17.30;99.90;;;;;;5033545;28;20543;-69
2021/07/29 00:13:34;;;;;;;15.53;14.63;;;17.40;99.90;;;;;;5033651;28;20456;-70
2021/07/29 00:16:03;;;;;;;15.80;14.90;;;17.40;99.90;;;;;;5033436;28;20449;-70
2021/07/29 00:21:13;;;;;;;16.10;14.80;;;17.40;99.90;;;;;;5032914;28;20807;-70
2021/07/29 00:23:40;;;;;;;15.43;14.73;;;17.40;99.90;;;;;;5033223;28;20444;-70
2021/07/29 00:26:10;;;;;;;15.77;14.77;;;17.40;99.90;;;;;;5033413;28;20445;-70
2021/07/29 00:28:37;;;;;;;15.30;14.60;;;17.30;99.90;;;;;;5033199;28;20522;-70
2021/07/29 00:31:05;;;;;;;14.77;14.03;;;17.30;99.90;;;;;;5033195;28;20487;-70
2021/07/29 00:33:31;;;;;;;15.23;14.33;;;17.20;99.90;;;;;;5033207;28;20827;-70
2021/07/29 00:35:58;;;;;;;14.90;14.20;;;17.30;99.90;;;;;;5032770;28;20821;-70
2021/07/29 00:38:25;;;;;;;16.27;15.37;;;17.20;99.90;;;;;;5033094;28;20456;-70
2021/07/29 00:40:51;;;;;;;14.40;13.47;;;17.30;99.90;;;;;;5033279;28;20437;-71
2021/07/29 00:43:18;;;;;;;15.90;15.00;;;17.20;99.90;;;;;;5033047;28;20873;-70
2021/07/29 00:45:45;;;;;;;16.53;15.63;;;17.20;99.90;;;;;;5032721;28;20456;-70
2021/07/29 00:48:14;;;;;;;17.30;16.30;;;17.20;99.90;;;;;;5032711;28;20487;-70
2021/07/29 00:50:41;;;;;;;17.40;16.50;;;17.20;99.90;;;;;;5032650;28;20780;-69
2021/07/29 00:53:09;;;;;;;18.43;17.33;;;17.20;99.90;;;;;;5032883;28;20475;-70
2021/07/29 00:55:36;;;;;;;20.30;18.90;;;17.20;99.90;;;;;;5032840;28;20460;-70
2021/07/29 00:58:03;;;;;;;18.80;17.60;;;17.10;99.90;;;;;;5032582;28;20445;-70
2021/07/29 01:00:30;;;;;;;20.53;19.20;;;17.10;99.90;;;;;;5032457;28;20449;-70
2021/07/29 01:02:57;;;;;;;19.57;18.30;;;17.10;99.90;;;;;;5032689;28;20449;-70
2021/07/29 01:05:25;;;;;;;21.83;19.70;;;17.00;99.90;;;;;;5032394;28;20457;-70
2021/07/29 01:07:51;;;;;;;19.40;17.97;;;17.00;99.90;;;;;;5032483;28;20499;-70
2021/07/29 01:10:18;;;;;;;20.33;18.80;;;17.00;99.90;;;;;;5032302;28;20484;-70
2021/07/29 01:12:45;;;;;;;19.73;18.53;;;17.00;99.90;;;;;;5032323;28;20453;-69
2021/07/29 01:15:12;;;;;;;20.20;18.80;;;16.90;99.90;;;;;;5032386;28;20574;-70
2021/07/29 01:20:21;;;;;;;19.60;18.20;;;16.90;99.90;;;;;;5742509;23;20871;-68
2021/07/29 01:22:48;;;;;;;20.17;18.50;;;16.90;99.90;;;;;;5001651;28;20497;-68
2021/07/29 01:25:14;;;;;;;20.10;18.67;;;16.90;99.90;;;;;;4992833;28;20802;-68
2021/07/29 01:27:41;;;;;;;20.30;19.10;;;17.00;99.90;;;;;;5000179;28;20473;-68
2021/07/29 01:30:09;;;;;;;20.20;18.90;;;17.00;99.90;;;;;;4996153;28;20487;-70
2021/07/29 01:32:36;;;;;;;21.47;19.80;;;16.90;99.90;;;;;;4993000;28;20958;-70
2021/07/29 01:35:03;;;;;;;20.47;19.13;;;16.90;99.90;;;;;;4992558;28;20451;-69
2021/07/29 01:37:31;;;;;;;20.20;18.70;;;16.90;99.90;;;;;;4992881;28;20458;-69
2021/07/29 01:39:58;;;;;;;20.27;18.77;;;16.90;99.90;;;;;;4992826;28;20459;-70
2021/07/29 01:42:25;;;;;;;21.50;20.10;;;16.90;99.90;;;;;;4992704;28;20462;-70
2021/07/29 01:44:51;;;;;;;20.73;19.30;;;16.90;99.90;;;;;;4993068;28;20454;-69
2021/07/29 01:47:18;;;;;;;19.83;18.60;;;16.90;99.90;;;;;;4992452;28;20458;-69
2021/07/29 01:49:44;;;;;;;19.73;18.40;;;16.80;99.90;;;;;;4992172;28;20482;-69
2021/07/29 01:52:12;;;;;;;21.10;19.53;;;16.80;99.90;;;;;;4992520;28;20486;-69
2021/07/29 01:54:40;;;;;;;20.43;19.00;;;16.80;99.90;;;;;;4992517;28;20513;-69
2021/07/29 01:57:07;;;;;;;20.40;19.20;;;16.80;99.90;;;;;;4992564;28;20943;-70
2021/07/29 01:59:35;;;;;;;20.90;19.50;;;16.70;99.90;;;;;;4992482;28;20877;-70
2021/07/29 02:02:02;;;;;;;20.90;19.50;;;16.70;99.90;;;;;;4992298;28;20537;-70
2021/07/29 02:04:29;;;;;;;21.67;20.20;;;16.70;99.90;;;;;;4991960;28;20986;-70
2021/07/29 02:06:55;;;;;;;19.80;18.57;;;16.60;99.90;;;;;;4992347;28;20475;-70
2021/07/29 02:09:22;;;;;;;20.03;18.63;;;16.70;99.90;;;;;;4992358;28;20450;-71
2021/07/29 02:11:52;;;;;;;20.03;18.73;;;16.60;99.90;;;;;;4991645;28;20482;-70
2021/07/29 02:14:19;;;;;;;19.87;18.80;;;16.60;99.90;;;;;;4992165;28;20483;-70
2021/07/29 02:16:46;;;;;;;20.73;19.20;;;16.60;99.90;;;;;;4991913;28;20454;-71
2021/07/29 02:19:13;;;;;;;20.37;19.00;;;16.60;99.90;;;;;;4991673;28;20474;-70
2021/07/29 02:21:39;;;;;;;20.00;18.77;;;16.60;99.90;;;;;;4991872;28;20487;-70
2021/07/29 02:24:06;;;;;;;20.17;18.93;;;16.60;99.90;;;;;;4991947;28;20946;-70
2021/07/29 02:26:33;;;;;;;20.03;18.83;;;16.50;99.90;;;;;;4991912;28;20486;-70
2021/07/29 02:29:01;;;;;;;19.57;18.13;;;16.50;99.90;;;;;;5000615;28;20520;-69
2021/07/29 02:31:28;;;;;;;19.33;18.20;;;16.50;99.90;;;;;;4992961;28;20490;-70
2021/07/29 02:33:54;;;;;;;18.57;17.37;;;16.50;99.90;;;;;;4991728;28;20501;-70
2021/07/29 02:36:21;;;;;;;18.90;17.70;;;16.50;99.90;;;;;;4991861;28;20819;-70
2021/07/29 02:38:48;;;;;;;24.83;18.27;;;16.50;99.90;;;;;;4991801;28;20874;-70
2021/07/29 02:41:14;;;;;;;17.60;16.70;;;16.50;99.90;;;;;;4991267;28;20459;-70
2021/07/29 02:43:41;;;;;;;19.47;18.33;;;16.50;99.90;;;;;;4991775;28;20455;-70
2021/07/29 02:46:09;;;;;;;19.53;18.20;;;16.50;99.90;;;;;;4991635;28;20453;-70
2021/07/29 02:48:35;;;;;;;19.20;18.00;;;16.50;99.90;;;;;;4991637;28;20463;-70
2021/07/29 02:51:02;;;;;;;19.30;18.10;;;16.50;99.90;;;;;;4991204;28;20560;-70
2021/07/29 02:53:32;;;;;;;21.53;20.03;;;16.50;99.90;;;;;;4991300;28;20446;-70
2021/07/29 02:55:59;;;;;;;21.87;19.87;;;16.40;99.90;;;;;;4991129;28;20554;-70
2021/07/29 02:58:26;;;;;;;22.80;21.10;;;16.40;99.90;;;;;;4991259;28;20820;-70
2021/07/29 03:00:53;;;;;;;19.37;18.07;;;16.40;99.90;;;;;;4991442;28;20461;-70
2021/07/29 03:03:21;;;;;;;20.40;19.10;;;16.30;99.90;;;;;;4991235;28;20450;-70
2021/07/29 03:05:48;;;;;;;21.27;19.73;;;16.40;99.90;;;;;;4991172;28;20458;-70
2021/07/29 03:08:15;;;;;;;21.53;20.13;;;16.30;99.90;;;;;;4991251;28;20525;-70
2021/07/29 03:10:46;;;;;;;23.47;21.40;;;16.30;99.90;;;;;;4990977;28;20493;-71
2021/07/29 03:13:12;;;;;;;21.17;19.63;;;16.20;99.90;;;;;;4991053;28;20481;-70
2021/07/29 03:15:39;;;;;;;20.53;19.13;;;16.20;99.90;;;;;;4991113;28;20447;-70
2021/07/29 03:18:06;;;;;;;21.90;20.20;;;16.20;99.90;;;;;;4991115;28;20443;-71
2021/07/29 03:20:34;;;;;;;21.40;20.10;;;16.20;99.90;;;;;;4990906;28;20458;-71
2021/07/29 03:23:00;;;;;;;20.80;19.40;;;16.20;99.90;;;;;;4990041;28;20454;-70
2021/07/29 03:25:27;;;;;;;20.37;18.97;;;16.20;99.90;;;;;;4990826;28;20453;-70
2021/07/29 03:27:54;;;;;;;20.63;19.07;;;16.20;99.90;;;;;;4990852;28;20982;-70
2021/07/29 03:30:20;;;;;;;21.20;19.70;;;16.10;99.90;;;;;;5000532;28;20493;-70
2021/07/29 03:32:47;;;;;;;20.60;19.30;;;16.10;99.90;;;;;;4991281;28;20455;-69
2021/07/29 03:35:13;;;;;;;20.07;18.93;;;16.10;99.90;;;;;;4990984;28;20443;-70
2021/07/29 03:37:41;;;;;;;20.83;19.57;;;16.10;99.90;;;;;;4990981;28;20451;-69
2021/07/29 03:40:09;;;;;;;20.53;19.03;;;16.10;99.90;;;;;;4990849;28;20454;-69
2021/07/29 03:42:36;;;;;;;20.00;18.73;;;16.10;99.90;;;;;;4991102;28;20542;-70
2021/07/29 03:45:04;;;;;;;21.60;20.10;;;16.10;99.90;;;;;;4990991;28;20478;-70
2021/07/29 03:47:30;;;;;;;22.00;20.10;;;16.10;99.90;;;;;;4990446;28;21112;-69
2021/07/29 03:49:57;;;;;;;21.03;19.80;;;16.10;99.90;;;;;;4990359;28;20969;-70
2021/07/29 03:52:24;;;;;;;20.73;19.20;;;16.10;99.90;;;;;;4990673;28;20798;-69
2021/07/29 03:54:52;;;;;;;21.57;20.20;;;16.10;99.90;;;;;;4990774;28;20450;-68
2021/07/29 03:57:22;;;;;;;20.50;18.83;;;16.10;99.90;;;;;;4990229;28;21021;-68
2021/07/29 03:59:49;;;;;;;21.57;20.00;;;16.10;99.90;;;;;;4990242;28;20926;-70
2021/07/29 04:02:15;;;;;;;21.53;20.03;;;16.10;99.90;;;;;;4990404;28;20508;-70
2021/07/29 04:04:42;;;;;;;20.40;19.00;;;16.20;99.90;;;;;;4990901;28;20451;-70
2021/07/29 04:07:09;;;;;;;19.63;18.47;;;16.20;99.90;;;;;;4990689;28;20442;-70
2021/07/29 04:09:36;;;;;;;21.80;20.33;;;16.30;99.90;;;;;;4990918;28;20455;-70
2021/07/29 04:12:05;;;;;;;19.97;18.57;;;16.30;99.90;;;;;;4990658;28;20900;-70
2021/07/29 04:14:32;;;;;;;19.90;18.60;;;16.30;99.90;;;;;;4990446;28;20517;-70
2021/07/29 04:16:58;;;;;;;20.90;19.60;;;16.40;99.90;;;;;;4990277;28;20451;-71
2021/07/29 04:19:25;;;;;;;19.90;18.60;;;16.40;99.90;;;;;;4990505;28;20907;-71
2021/07/29 04:21:51;;;;;;;21.00;19.13;;;16.40;99.90;;;;;;4990440;28;20850;-71
2021/07/29 04:24:18;;;;;;;22.40;21.00;;;16.50;99.90;;;;;;4990251;28;20459;-71
2021/07/29 04:26:45;;;;;;;24.07;22.17;;;16.50;99.90;;;;;;4990524;28;20458;-69
2021/07/29 04:29:13;;;;;;;21.20;19.67;;;16.50;99.90;;;;;;4990376;28;20873;-69
2021/07/29 04:31:40;;;;;;;20.83;19.50;;;16.50;99.90;;;;;;4990365;28;20549;-69
2021/07/29 04:34:07;;;;;;;22.33;20.53;;;16.50;99.90;;;;;;4991152;28;20858;-70
2021/07/29 04:36:39;;;;;;;21.33;20.00;;;16.60;99.90;;;;;;4993752;28;20474;-69
2021/07/29 04:39:06;;;;;;;21.27;19.87;;;16.70;99.90;;;;;;4994028;28;20545;-69
2021/07/29 04:41:33;;;;;;;21.70;20.20;;;16.70;99.90;;;;;;4993490;28;21041;-69
2021/07/29 04:43:59;;;;;;;21.20;19.63;;;16.80;99.90;;;;;;4993718;28;21173;-69
2021/07/29 04:46:27;;;;;;;21.60;20.17;;;16.70;99.90;;;;;;4993919;28;20462;-69
2021/07/29 04:48:54;;;;;;;21.67;19.90;;;16.70;99.90;;;;;;4993655;28;20447;-69
2021/07/29 04:51:21;;;;;;;25.00;22.43;;;16.70;99.90;;;;;;4993688;28;20487;-69
2021/07/29 04:53:47;;;;;;;21.73;20.13;;;16.70;99.90;;;;;;4993505;28;21020;-69
2021/07/29 04:56:14;;;;;;;22.47;20.80;;;16.80;99.90;;;;;;4993677;28;20454;-69
2021/07/29 04:58:40;;;;;;;20.80;19.50;;;16.80;99.90;;;;;;4993412;28;20558;-69
2021/07/29 05:01:07;;;;;;;21.20;19.70;;;16.80;99.90;;;;;;4993510;28;20443;-69
2021/07/29 05:03:35;;;;;;;20.93;19.33;;;16.90;99.90;;;;;;4993300;28;20478;-69
2021/07/29 05:06:02;;;;;;;17.90;16.80;;;16.90;99.90;;;;;;4993361;28;20458;-69
2021/07/29 05:08:28;;;;;;;19.47;18.17;;;17.00;99.90;;;;;;4993223;28;20466;-68
2021/07/29 05:10:55;;;;;;;19.10;17.90;;;17.00;99.90;;;;;;4993276;28;20483;-69
2021/07/29 05:13:22;;;;;;;20.37;18.63;;;17.10;99.90;;;;;;4993222;28;20505;-70
2021/07/29 05:15:48;;;;;;;21.10;19.23;;;17.20;99.90;;;;;;4992951;28;20458;-70
2021/07/29 05:18:15;;;;;;;20.53;18.60;;;17.30;99.90;;;;;;4993053;28;20451;-70
2021/07/29 05:20:43;;;;;;;19.57;17.80;;;17.40;99.90;;;;;;4992790;28;20458;-70
2021/07/29 05:23:10;;;;;;;18.90;17.43;;;17.40;99.90;;;;;;4993031;28;20446;-70
2021/07/29 05:25:37;;;;;;;18.67;17.17;;;17.50;99.90;;;;;;4992865;28;20473;-69
2021/07/29 05:28:04;;;;;;;20.13;18.77;;;17.50;99.90;;;;;;4992907;28;20482;-69
2021/07/29 05:30:31;;;;;;;17.70;16.30;;;17.50;99.90;;;;;;4992941;28;20529;-69
2021/07/29 05:32:58;;;;;;;17.47;16.07;;;17.80;99.90;;;;;;4992745;28;20459;-71
2021/07/29 05:35:25;;;;;;;17.20;15.70;;;18.40;99.90;;;;;;4992560;28;20493;-71
2021/07/29 05:37:54;;;;;;;17.43;16.53;;;18.80;99.90;;;;;;4992849;28;21013;-71
2021/07/29 05:40:20;;;;;;;19.30;17.90;;;19.10;99.90;;;;;;4992831;28;20451;-69
2021/07/29 05:42:47;;;;;;;19.13;17.80;;;19.30;99.90;;;;;;4992624;28;20469;-70
2021/07/29 05:45:14;;;;;;;19.30;17.87;;;19.50;99.90;;;;;;4992218;28;20450;-70
2021/07/29 05:47:42;;;;;;;18.87;17.77;;;19.60;99.90;;;;;;4991767;28;20517;-69
2021/07/29 05:50:09;;;;;;;17.87;16.87;;;19.40;99.90;;;;;;4992595;28;20455;-70
2021/07/29 05:52:36;;;;;;;17.13;16.00;;;19.30;99.90;;;;;;4992478;28;20498;-69
2021/07/29 05:55:04;;;;;;;16.90;15.90;;;19.90;99.90;;;;;;4992398;28;20466;-70
2021/07/29 05:57:33;;;;;;;19.13;17.63;;;20.20;99.90;;;;;;4992054;28;21204;-70
2021/07/29 05:59:59;;;;;;;16.00;15.20;;;20.20;99.90;;;;;;4992166;28;20536;-70
2021/07/29 06:02:26;;;;;;;16.33;15.53;;;20.50;99.90;;;;;;4992034;28;20867;-70
2021/07/29 06:04:53;;;;;;;16.80;15.83;;;20.60;99.90;;;;;;4992272;28;20826;-69
2021/07/29 06:07:21;;;;;;;16.13;15.30;;;20.30;99.90;;;;;;4992060;28;20459;-70
2021/07/29 06:09:47;;;;;;;16.70;15.37;;;20.30;99.90;;;;;;4991685;28;20494;-69
2021/07/29 06:12:17;;;;;;;15.77;14.83;;;20.80;99.90;;;;;;4991332;28;20498;-70
2021/07/29 06:14:44;;;;;;;16.90;15.50;;;21.50;99.90;;;;;;4991954;28;20505;-70
2021/07/29 06:17:10;;;;;;;18.00;16.20;;;22.00;99.90;;;;;;4991789;28;20997;-70
2021/07/29 06:19:39;;;;;;;14.37;13.67;;;22.40;99.90;;;;;;4991856;28;20569;-70
2021/07/29 06:22:06;;;;;;;15.60;14.80;;;22.70;99.90;;;;;;4991489;28;20559;-70
2021/07/29 06:24:33;;;;;;;16.07;14.53;;;23.30;99.90;;;;;;4991564;28;20451;-71
2021/07/29 06:26:59;;;;;;;15.70;14.97;;;23.80;99.90;;;;;;4991530;28;20450;-71
2021/07/29 06:29:27;;;;;;;14.60;13.87;;;24.20;99.90;;;;;;4991595;28;20462;-70
2021/07/29 06:31:54;;;;;;;14.73;13.93;;;24.40;99.90;;;;;;4991221;28;20674;-69
2021/07/29 06:34:21;;;;;;;14.90;14.20;;;24.60;99.90;;;;;;4991535;28;20447;-70
2021/07/29 06:36:47;;;;;;;14.43;13.77;;;24.60;99.90;;;;;;4990994;28;20447;-71
2021/07/29 06:39:14;;;;;;;14.10;13.20;;;24.50;99.90;;;;;;4991219;28;20462;-71
2021/07/29 06:41:41;;;;;;;13.50;12.80;;;24.50;99.90;;;;;;4991242;28;20520;-70
2021/07/29 06:44:08;;;;;;;14.60;13.60;;;24.50;99.90;;;;;;4991608;28;20505;-71
2021/07/29 06:46:38;;;;;;;15.87;14.97;;;24.50;99.90;;;;;;4991193;28;20459;-71
2021/07/29 06:49:05;;;;;;;15.17;14.40;;;25.00;99.90;;;;;;4991289;28;20447;-70
2021/07/29 06:51:31;;;;;;;13.97;13.10;;;25.80;99.90;;;;;;4990920;28;20552;-71
2021/07/29 06:53:59;;;;;;;14.43;13.37;;;26.40;98.60;;;;;;4991225;28;20446;-71
2021/07/29 06:56:26;;;;;;;13.67;12.87;;;26.30;97.70;;;;;;4991200;28;20565;-71
2021/07/29 06:58:53;;;;;;;14.47;13.43;;;25.70;98.50;;;;;;4990960;28;20453;-72
2021/07/29 07:01:19;;;;;;;14.30;13.50;;;25.90;98.30;;;;;;4991295;28;20454;-72
2021/07/29 07:03:48;;;;;;;13.10;12.60;;;26.10;98.10;;;;;;4991096;28;20458;-71
2021/07/29 07:06:14;;;;;;;14.13;13.33;;;26.50;97.40;;;;;;4991338;28;20458;-71
2021/07/29 07:08:41;;;;;;;15.17;13.47;;;27.50;95.60;;;;;;4991101;28;20474;-70
2021/07/29 07:11:14;;;;;;;13.63;13.13;;;28.60;93.30;;;;;;4991125;28;20537;-72
2021/07/29 07:13:43;;;;;;;13.73;12.97;;;29.00;90.90;;;;;;4991087;28;20455;-72
2021/07/29 07:16:11;;;;;;;12.93;12.40;;;29.10;89.80;;;;;;4991229;28;20537;-71
2021/07/29 07:18:38;;;;;;;13.87;13.30;;;28.70;90.70;;;;;;4990933;28;20546;-71
2021/07/29 07:21:07;;;;;;;14.43;13.73;;;29.00;89.60;;;;;;4990777;28;20486;-70
2021/07/29 07:23:34;;;;;;;14.20;13.57;;;29.30;89.20;;;;;;4990871;28;20450;-72
2021/07/29 07:26:00;;;;;;;14.60;13.90;;;29.60;88.60;;;;;;4991009;28;20751;-71
2021/07/29 07:28:27;;;;;;;14.80;13.67;;;29.80;87.80;;;;;;4990837;28;20451;-71
2021/07/29 07:30:54;;;;;;;14.57;13.97;;;30.40;85.40;;;;;;4991034;28;20451;-70
2021/07/29 07:33:20;;;;;;;14.47;13.77;;;30.40;83.80;;;;;;4990541;28;20514;-71
2021/07/29 07:35:47;;;;;;;14.57;13.97;;;30.50;83.50;;;;;;4988718;28;20468;-71
2021/07/29 07:38:15;;;;;;;14.07;13.57;;;30.60;80.30;;;;;;4989453;28;20458;-72
2021/07/29 07:40:42;;;;;;;14.03;13.53;;;30.70;80.10;;;;;;4993217;28;20878;-71
2021/07/29 07:43:09;;;;;;;15.50;14.80;;;30.60;78.50;;;;;;5010204;28;20449;-72
2021/07/29 07:45:37;;;;;;;15.10;14.30;;;31.00;78.50;;;;;;5001623;28;20541;-71
2021/07/29 07:48:06;;;;;;;15.10;14.50;;;31.30;77.40;;;;;;5009423;28;20449;-72
2021/07/29 07:50:33;;;;;;;14.93;14.23;;;31.20;75.60;;;;;;4990854;28;20451;-72
2021/07/29 07:53:03;;;;;;;15.43;14.63;;;31.00;75.60;;;;;;4990630;28;20502;-70
2021/07/29 07:55:31;;;;;;;15.50;14.80;;;31.30;75.60;;;;;;4991003;28;20451;-71
2021/07/29 07:57:58;;;;;;;15.70;15.00;;;31.00;75.80;;;;;;4990911;28;20447;-71
2021/07/29 08:00:24;;;;;;;14.43;13.83;;;30.20;77.60;;;;;;4990624;28;20955;-71
2021/07/29 08:02:51;;;;;;;15.00;14.30;;;29.80;77.10;;;;;;4990914;28;20450;-71
2021/07/29 08:05:18;;;;;;;14.20;13.63;;;28.90;77.60;;;;;;4990946;28;20489;-71
2021/07/29 08:07:44;;;;;;;15.27;14.47;;;28.00;80.30;;;;;;4990916;28;20455;-71
2021/07/29 08:10:12;;;;;;;14.47;13.83;;;27.80;82.60;;;;;;4992705;28;20442;-71
2021/07/29 08:12:40;;;;;;;14.00;13.10;;;28.50;81.70;;;;;;4994779;28;20486;-71
2021/07/29 08:15:07;;;;;;;14.60;13.90;;;28.80;81.00;;;;;;5006875;28;20847;-71
2021/07/29 08:17:34;;;;;;;14.63;14.03;;;28.60;81.60;;;;;;5013944;28;20507;-73
2021/07/29 08:20:01;;;;;;;14.33;13.63;;;27.80;83.50;;;;;;5013745;28;20482;-70
2021/07/29 08:22:28;;;;;;;15.07;14.27;;;27.40;84.20;;;;;;5013622;28;20478;-71
2021/07/29 08:24:54;;;;;;;14.17;13.47;;;27.40;84.80;;;;;;5013610;28;20464;-71
2021/07/29 08:27:21;;;;;;;14.33;13.83;;;27.40;84.20;;;;;;5014132;28;20458;-71
2021/07/29 08:29:49;;;;;;;13.80;13.10;;;27.50;84.80;;;;;;5013892;28;20457;-70
2021/07/29 08:32:16;;;;;;;14.00;13.40;;;27.80;85.80;;;;;;5013709;28;20513;-72
2021/07/29 08:34:43;;;;;;;14.27;13.60;;;28.80;82.90;;;;;;5013785;28;20457;-72
2021/07/29 08:37:12;;;;;;;13.70;13.20;;;29.10;81.10;;;;;;5013804;28;20825;-72
2021/07/29 08:39:38;;;;;;;13.90;13.30;;;29.20;79.60;;;;;;5013756;28;20507;-72
2021/07/29 08:42:06;;;;;;;13.87;13.07;;;29.00;79.10;;;;;;5013651;28;20453;-72
2021/07/29 08:44:34;;;;;;;13.40;12.70;;;28.90;81.20;;;;;;5013596;28;20449;-72
2021/07/29 08:47:05;;;;;;;14.93;14.23;;;29.30;77.20;;;;;;5013527;28;20450;-72
2021/07/29 08:49:33;;;;;;;14.50;13.90;;;29.30;76.70;;;;;;5013405;28;20530;-72
2021/07/29 08:52:00;;;;;;;14.87;14.27;;;29.40;77.90;;;;;;5013269;28;20481;-72
2021/07/29 08:54:27;;;;;;;15.40;14.70;;;29.50;75.40;;;;;;5013314;28;20453;-71
2021/07/29 08:56:53;;;;;;;14.27;13.67;;;29.30;76.30;;;;;;5013496;28;20454;-71
2021/07/29 08:59:20;;;;;;;14.67;13.87;;;29.00;77.10;;;;;;5013372;28;20949;-71
2021/07/29 09:01:50;;;;;;;15.83;14.83;;;28.90;77.40;;;;;;5013067;28;20461;-71
2021/07/29 09:04:18;;;;;;;15.50;14.90;;;30.10;76.60;;;;;;5012831;28;20458;-71
2021/07/29 09:06:57;;;;;;;15.77;14.83;;;31.50;71.70;;;;;;5012945;28;20833;-71
2021/07/29 09:09:37;;;;;;;16.47;15.50;;;31.80;70.30;;;;;;5013204;28;20453;-72
2021/07/29 09:12:17;;;;;;;15.80;15.10;;;32.50;69.10;;;;;;5012896;28;20489;-71
2021/07/29 09:14:44;;;;;;;16.10;15.40;;;32.30;66.50;;;;;;5013330;28;20473;-71
2021/07/29 09:17:11;;;;;;;15.53;14.83;;;32.50;66.80;;;;;;4993578;28;20447;-71
2021/07/29 09:19:40;;;;;;;16.77;16.07;;;32.70;65.10;;;;;;4993476;28;20485;-71
2021/07/29 09:22:09;;;;;;;16.43;15.73;;;33.20;64.50;;;;;;4993168;28;20482;-71
2021/07/29 09:24:53;;;;;;;15.40;14.77;;;33.30;63.60;;;;;;4993202;28;20458;-71
2021/07/29 09:27:20;;;;;;;15.60;15.00;;;34.40;61.10;;;;;;4993320;28;20462;-71
2021/07/29 09:29:47;;;;;;;15.40;14.80;;;34.20;60.60;;;;;;4992803;28;20451;-72
2021/07/29 09:32:16;;;;;;;15.90;15.20;;;34.00;58.00;;;;;;4992852;28;20904;-71
2021/07/29 09:34:49;;;;;;;15.90;15.10;;;33.30;59.10;;;;;;4993084;28;20463;-71
2021/07/29 09:37:17;;;;;;;14.87;14.27;;;33.50;60.10;;;;;;4992614;28;20561;-71
2021/07/29 09:39:44;;;;;;;15.90;15.20;;;33.50;59.40;;;;;;4992878;28;20903;-71
2021/07/29 09:42:16;;;;;;;15.53;14.70;;;33.30;60.80;;;;;;4995316;28;20530;-72
2021/07/29 09:44:44;;;;;;;15.73;14.93;;;33.80;59.60;;;;;;5012296;28;20449;-72
2021/07/29 09:47:11;;;;;;;16.47;15.53;;;32.80;59.40;;;;;;5012453;28;20532;-72
2021/07/29 09:49:38;;;;;;;16.27;15.53;;;31.90;61.30;;;;;;5012362;28;20446;-72
2021/07/29 09:52:07;;;;;;;14.93;14.13;;;31.30;62.30;;;;;;5012356;28;20462;-72
2021/07/29 09:54:36;;;;;;;15.10;14.30;;;30.80;62.50;;;;;;5011902;28;20458;-73
2021/07/29 09:57:07;;;;;;;15.97;15.27;;;31.10;64.20;;;;;;5011660;28;20500;-70
2021/07/29 09:59:34;;;;;;;16.20;15.43;;;31.80;62.00;;;;;;5009814;28;20809;-72
2021/07/29 10:02:02;;;;;;;15.47;14.87;;;32.80;60.00;;;;;;5011553;28;20932;-72
2021/07/29 10:04:33;;;;;;;15.37;14.77;;;32.60;58.70;;;;;;5011393;28;20897;-71
2021/07/29 10:07:05;;;;;;;15.53;14.83;;;31.30;60.30;;;;;;5011499;28;20442;-72
2021/07/29 10:09:38;;;;;;;14.80;14.13;;;31.90;60.80;;;;;;5011409;28;20810;-72
2021/07/29 10:12:08;;;;;;;15.40;14.80;;;32.80;58.40;;;;;;5011375;28;20465;-72
2021/07/29 10:14:52;;;;;;;16.20;15.50;;;33.10;57.70;;;;;;5011495;28;20450;-71
2021/07/29 10:17:47;;;;;;;15.73;14.90;;;32.80;58.10;;;;;;5011277;28;20491;-71
2021/07/29 10:20:19;;;;;;;15.90;15.10;;;32.60;58.50;;;;;;5011033;28;20469;-72
2021/07/29 10:22:47;;;;;;;15.87;15.27;;;33.20;57.10;;;;;;5010818;28;21066;-71
2021/07/29 10:25:15;;;;;;;16.10;15.40;;;32.50;57.80;;;;;;5010993;28;20497;-72
2021/07/29 10:28:17;;;;;;;16.80;15.90;;;31.80;59.30;;;;;;5010909;28;20442;-72
2021/07/29 10:30:52;;;;;;;16.47;15.67;;;32.60;57.70;;;;;;5010813;28;20523;-72
2021/07/29 10:33:19;;;;;;;15.77;15.07;;;31.60;58.90;;;;;;5010753;28;20540;-71
2021/07/29 10:35:45;;;;;;;15.53;14.83;;;31.70;58.80;;;;;;5011122;28;20484;-72
2021/07/29 10:38:14;;;;;;;15.73;15.07;;;32.50;58.30;;;;;;5010908;28;20948;-72
2021/07/29 10:40:43;;;;;;;16.47;15.57;;;33.20;57.30;;;;;;5010967;28;20454;-72
2021/07/29 10:43:40;;;;;;;16.03;15.33;;;33.40;57.00;;;;;;5010774;28;20454;-71
2021/07/29 10:46:09;;;;;;;16.63;15.80;;;33.50;55.40;;;;;;5011085;28;20446;-72
2021/07/29 10:51:59;;;;;;;16.00;15.33;;;32.30;57.30;;;;;;5010946;28;20429;-72
2021/07/29 10:54:27;;;;;;;16.83;16.03;;;32.70;56.70;;;;;;5010625;28;20547;-71
2021/07/29 10:56:55;;;;;;;16.60;15.80;;;32.80;55.60;;;;;;5010592;28;20461;-71
2021/07/29 10:59:23;;;;;;;15.63;14.93;;;33.60;54.60;;;;;;5010706;28;20512;-72
2021/07/29 11:01:51;;;;;;;16.40;15.70;;;32.80;54.20;;;;;;5010643;28;20453;-72
2021/07/29 11:04:17;;;;;;;17.03;16.33;;;33.60;54.90;;;;;;5010620;28;20489;-71
2021/07/29 11:06:44;;;;;;;17.43;16.70;;;34.90;52.20;;;;;;5010466;28;20456;-71
2021/07/29 11:09:13;;;;;;;17.37;16.67;;;35.30;51.60;;;;;;5010276;28;20817;-71
2021/07/29 11:11:40;;;;;;;17.47;16.70;;;35.90;51.70;;;;;;5010424;28;20477;-71
2021/07/29 11:14:10;;;;;;;16.60;15.80;;;35.00;51.80;;;;;;5010616;28;20494;-72
2021/07/29 11:16:37;;;;;;;17.10;16.30;;;35.00;52.10;;;;;;5010719;28;20453;-72
2021/07/29 11:19:05;;;;;;;17.93;17.10;;;34.00;52.60;;;;;;5010340;28;20981;-71
2021/07/29 11:21:32;;;;;;;18.00;17.23;;;32.90;53.90;;;;;;5009960;28;20481;-72
2021/07/29 11:23:59;;;;;;;17.10;16.30;;;32.00;55.90;;;;;;5010342;28;21000;-72
2021/07/29 11:26:26;;;;;;;17.97;16.97;;;30.90;57.70;;;;;;5010394;28;20450;-71
2021/07/29 11:29:06;;;;;;;18.30;17.40;;;30.40;57.90;;;;;;5010563;28;20488;-72
2021/07/29 11:31:34;;;;;;;16.20;15.60;;;31.00;57.10;;;;;;5010188;28;20541;-72
2021/07/29 11:34:01;;;;;;;17.00;16.10;;;31.90;56.30;;;;;;5010300;28;20489;-72
2021/07/29 11:36:29;;;;;;;17.30;16.57;;;32.60;54.50;;;;;;5010077;28;21004;-72
2021/07/29 11:38:57;;;;;;;16.67;15.87;;;33.60;54.10;;;;;;5010038;28;20545;-72
2021/07/29 11:41:24;;;;;;;16.93;16.23;;;34.30;52.40;;;;;;5010451;28;20557;-72
2021/07/29 11:43:53;;;;;;;16.60;15.80;;;34.50;52.30;;;;;;5010202;28;20485;-72
2021/07/29 11:46:20;;;;;;;18.33;17.17;;;34.30;51.70;;;;;;5014275;28;20540;-72
2021/07/29 11:48:48;;;;;;;18.30;17.30;;;34.80;52.20;;;;;;5014253;28;20454;-72
2021/07/29 11:51:15;;;;;;;17.97;17.00;;;35.40;51.10;;;;;;5013916;28;20718;-72
2021/07/29 11:53:44;;;;;;;16.93;16.23;;;34.80;51.40;;;;;;5013959;28;20485;-72
2021/07/29 11:56:12;;;;;;;17.30;16.60;;;34.70;50.80;;;;;;5013848;28;20454;-73
2021/07/29 11:58:40;;;;;;;16.23;15.60;;;34.10;51.50;;;;;;5014006;28;20453;-72
2021/07/29 12:01:11;;;;;;;16.93;16.10;;;32.60;53.00;;;;;;5013907;28;20511;-72
2021/07/29 12:03:42;;;;;;;17.87;16.87;;;31.80;53.80;;;;;;5013845;28;20820;-72
2021/07/29 12:06:10;;;;;;;16.47;15.77;;;31.20;56.20;;;;;;5013748;28;20454;-72
2021/07/29 12:08:41;;;;;;;15.77;15.07;;;30.50;55.80;;;;;;5013965;28;20461;-72
2021/07/29 12:11:10;;;;;;;16.47;15.53;;;30.20;57.30;;;;;;5013820;28;20488;-72
2021/07/29 12:13:39;;;;;;;16.47;15.77;;;30.10;58.20;;;;;;5013804;28;20493;-72
2021/07/29 12:16:06;;;;;;;16.93;16.17;;;30.00;59.00;;;;;;5013902;28;20937;-72
2021/07/29 12:18:33;;;;;;;16.30;15.50;;;30.20;57.80;;;;;;5013571;28;20845;-72
2021/07/29 12:21:00;;;;;;;17.03;16.30;;;29.80;58.60;;;;;;5013388;28;20485;-73
2021/07/29 12:23:30;;;;;;;15.90;15.20;;;29.90;58.90;;;;;;5013260;28;20474;-72
2021/07/29 12:26:11;;;;;;;16.07;15.20;;;29.40;59.50;;;;;;5013290;28;20453;-72
2021/07/29 12:28:39;;;;;;;16.30;15.50;;;29.50;59.90;;;;;;5013641;28;20548;-72
2021/07/29 12:31:18;;;;;;;15.17;14.57;;;29.40;59.90;;;;;;5013317;28;20492;-73
2021/07/29 12:33:49;;;;;;;17.60;16.60;;;29.40;60.50;;;;;;5013387;28;20576;-72
2021/07/29 12:36:16;;;;;;;16.00;15.30;;;29.60;61.70;;;;;;5013262;28;20521;-72
2021/07/29 12:38:44;;;;;;;16.87;16.07;;;30.20;59.30;;;;;;5013209;28;20941;-72
2021/07/29 12:41:11;;;;;;;16.27;15.57;;;30.00;59.30;;;;;;5013335;28;20458;-72